Home > Products > Valid Products > MTR

000
SAUS41 KOKX 221455
MTRMTP
METAR KMTP 221454Z AUTO 03010G20KT 15/12 A2992 RMK AO1 SLP130
T01500122 57006





000
SAUS41 KOKX 221452
MTRNYC
METAR KNYC 221451Z AUTO 10SM -RA OVC018 13/11 A2995 RMK AO2 RAB44
SLP132 P0001 60012 T01280106 50002 $





000
SAUS41 KOKX 221413
MTRNYC
SPECI KNYC 221411Z AUTO VRB06KT 10SM SCT014 OVC021 12/11 A2996 RMK
AO2 P0001 T01220106 $





000
SAUS41 KOKX 221401
MTRNYC
SPECI KNYC 221359Z AUTO VRB06KT 9SM BKN014 OVC020 13/11 A2996 RMK
AO2 P0001 T01280106 $





000
SAUS41 KOKX 221355
MTRMTP
METAR KMTP 221354Z AUTO 03011G21KT 14/12 A2992 RMK AO1 SLP131
T01440122





000
SAUS41 KOKX 221352
MTRNYC
METAR KNYC 221351Z AUTO 06008G17KT 10SM BKN016 OVC022 12/11 A2996
RMK AO2 RAE46 SLP135 P0005 T01220106 $





000
SAUS41 KOKX 221255
MTRMTP
METAR KMTP 221254Z AUTO 03009G18KT 14/12 A2993 RMK AO1 SLP134
T01390117





000
SAUS41 KOKX 221252
MTRNYC
METAR KNYC 221251Z AUTO 04009G15KT 360V100 3SM -RA BR BKN015 OVC020
12/11 A2996 RMK AO2 SLP135 P0006 T01220106 $





000
SAUS41 KOKX 221209
MTRNYC
SPECI KNYC 221208Z AUTO 03008G17KT 010V070 6SM -RA BR SCT014 OVC019
12/11 A2995 RMK AO2 P0001 T01220106 $





000
SAUS41 KOKX 221155
MTRMTP
METAR KMTP 221154Z AUTO 02011G19KT 14/12 A2993 RMK AO1 SLP136
T01390117 10156 20133 53005





000
SAUS41 KOKX 221153
MTRNYC
METAR KNYC 221151Z AUTO 04009G15KT 360V090 7SM -RA OVC014 12/11
A2994 RMK AO2 SLP130 P0005 60050 70061 T01220106 10144 20122 51006 $





000
SAUS41 KOKX 221149
MTRNYC
SPECI KNYC 221147Z AUTO 03008G15KT 280V200 7SM -RA BKN014 OVC018
13/11 A2994 RMK AO2 P0004 $





000
SAUS41 KOKX 221109
MTRNYC
SPECI KNYC 221108Z AUTO 05007KT 010V090 7SM -RA OVC015 13/11 A2994
RMK AO2 P0001 T01280111 $





000
SAUS41 KOKX 221055
MTRMTP
METAR KMTP 221054Z AUTO 04012G20KT 13/12 A2991 RMK AO1 SLP128
T01330117





000
SAUS41 KOKX 221052
MTRNYC
METAR KNYC 221051Z AUTO 05007KT 020V080 5SM -RA BR BKN013 OVC019
13/11 A2994 RMK AO2 SLP128 P0024 T01280111 $





000
SAUS41 KOKX 221027
MTRNYC
SPECI KNYC 221025Z AUTO VRB06KT 3SM RA BR BKN015 OVC020 13/11 A2993
RMK AO2 P0019 T01280111 $





000
SAUS41 KOKX 221020
MTRNYC
SPECI KNYC 221018Z AUTO VRB04KT 2 1/2SM RA BR SCT015 BKN020 OVC026
13/11 A2993 RMK AO2 P0015 T01280111 $





000
SAUS41 KOKX 221001
MTRNYC
SPECI KNYC 221001Z AUTO 07005KT 1 3/4SM +RA BR SCT012 BKN021 OVC055
13/12 A2993 RMK AO2 P0005 T01280117 $





000
SAUS41 KOKX 221001
MTRNYC
SPECI KNYC 221001Z AUTO 07005KT 1 3/4SM +RA BR SCT012 BKN021 OVC055
13/12 A2993 RMK AO2 P0005 T01280117 $





000
SAUS41 KOKX 220955
MTRMTP
METAR KMTP 220954Z AUTO 02011G18KT 14/12 A2992 RMK AO1 SLP130
T01390122





000
SAUS41 KOKX 220955
MTRMTP
METAR KMTP 220954Z AUTO 02011G18KT 14/12 A2992 RMK AO1 SLP130
T01390122





000
SAUS41 KOKX 220952
MTRNYC
METAR KNYC 220951Z AUTO VRB05KT 4SM RA BR SCT012 BKN027 OVC060 13/12
A2992 RMK AO2 SLP124 P0012 T01280117 $





000
SAUS41 KOKX 220952
MTRNYC
METAR KNYC 220951Z AUTO VRB05KT 4SM RA BR SCT012 BKN027 OVC060 13/12
A2992 RMK AO2 SLP124 P0012 T01280117 $





000
SAUS41 KOKX 220939
MTRNYC
SPECI KNYC 220938Z AUTO 06004KT 3SM RA BR FEW010 BKN045 OVC065 13/12
A2992 RMK AO2 P0009 T01280117 $





000
SAUS41 KOKX 220939
MTRNYC
SPECI KNYC 220938Z AUTO 06004KT 3SM RA BR FEW010 BKN045 OVC065 13/12
A2992 RMK AO2 P0009 T01280117 $





000
SAUS41 KOKX 220917
MTRNYC
SPECI KNYC 220916Z AUTO 06006KT 4SM -RA BR BKN010 OVC015 13/12 A2992
RMK AO2 CIG 007V013 P0004 T01330117 $





000
SAUS41 KOKX 220855
MTRMTP
METAR KMTP 220854Z AUTO 03009G17KT 14/13 A2992 RMK AO1 SLP131
T01440128 55001





000
SAUS41 KOKX 220852
MTRNYC
METAR KNYC 220851Z AUTO VRB03KT 4SM -RA BR OVC007 13/12 A2992 RMK
AO2 SLP121 P0008 60009 T01330117 55001 $





000
SAUS41 KOKX 220759
MTRNYC
SPECI KNYC 220758Z AUTO 07007KT 4SM RA BR OVC009 14/12 A2991 RMK AO2
CIG 008V011 P0002 T01390122 $





000
SAUS41 KOKX 220755
MTRMTP
METAR KMTP 220754Z AUTO 03008KT 15/13 A2990 RMK AO1 SLP124 T01500133





000
SAUS41 KOKX 220753
MTRNYC
METAR KNYC 220751Z AUTO VRB05KT 5SM -RA BR OVC011 14/12 A2991 RMK
AO2 RAB38 CIG 008V012 SLP118 P0001 T01390122 $





000
SAUS41 KOKX 220655
MTRMTP
METAR KMTP 220654Z AUTO 05011G16KT 15/13 A2990 RMK AO1 SLP126
T01500133





000
SAUS41 KOKX 220653
MTRNYC
METAR KNYC 220651Z AUTO 06007KT 020V090 10SM OVC011 14/12 A2990 RMK
AO2 SLP115 T01440117 $





000
SAUS41 KOKX 220555
MTRMTP
METAR KMTP 220554Z AUTO 05009G18KT 15/13 A2992 RMK AO1 SLP132
T01500133 10172 20150 58004





000
SAUS41 KOKX 220555
MTRMTP
METAR KMTP 220554Z AUTO 05009G18KT 15/13 A2992 RMK AO1 SLP132
T01500133 10172 20150 58004





000
SAUS41 KOKX 220553
MTRNYC
METAR KNYC 220551Z AUTO 07005KT 10SM OVC013 14/11 A2992 RMK AO2
SLP122 60011 T01390111 10167 20128 58004 $





000
SAUS41 KOKX 220553
MTRNYC
METAR KNYC 220551Z AUTO 07005KT 10SM OVC013 14/11 A2992 RMK AO2
SLP122 60011 T01390111 10167 20128 58004 $





000
SAUS41 KOKX 220501
MTRNYC
SPECI KNYC 220500Z AUTO VRB05KT 10SM BKN016 13/11 A2993 RMK AO2
T01280111 $





000
SAUS41 KOKX 220501
MTRNYC
SPECI KNYC 220500Z AUTO VRB05KT 10SM BKN016 13/11 A2993 RMK AO2
T01280111 $





000
SAUS41 KOKX 220455
MTRMTP
METAR KMTP 220454Z AUTO 04008G15KT 15/14 A2992 RMK AO1 SLP133
T01500139 402000111





000
SAUS41 KOKX 220455
MTRMTP
METAR KMTP 220454Z AUTO 04008G15KT 15/14 A2992 RMK AO1 SLP133
T01500139 402000111





000
SAUS41 KOKX 220453
MTRNYC
METAR KNYC 220451Z AUTO 04004KT 9SM SCT017 13/11 A2992 RMK AO2
SLP124 T01280111 401940128 $





000
SAUS41 KOKX 220453
MTRNYC
METAR KNYC 220451Z AUTO 04004KT 9SM SCT017 13/11 A2992 RMK AO2
SLP124 T01280111 401940128 $





000
SAUS41 KOKX 220410
MTRNYC
SPECI KNYC 220409Z AUTO VRB04KT 10SM BKN018 BKN025 13/11 A2993 RMK
AO2 T01330111 $





000
SAUS41 KOKX 220410
MTRNYC
SPECI KNYC 220409Z AUTO VRB04KT 10SM BKN018 BKN025 13/11 A2993 RMK
AO2 T01330111 $





000
SAUS41 KOKX 220403
MTRNYC
SPECI KNYC 220402Z AUTO VRB05KT 10SM SCT018 SCT025 13/11 A2993 RMK
AO2 T01330111 $





000
SAUS41 KOKX 220403
MTRNYC
SPECI KNYC 220402Z AUTO VRB05KT 10SM SCT018 SCT025 13/11 A2993 RMK
AO2 T01330111 $





000
SAUS41 KOKX 220355
MTRMTP
METAR KMTP 220354Z AUTO 04008KT 16/14 A2993 RMK AO1 SLP136 T01560144





000
SAUS41 KOKX 220355
MTRMTP
METAR KMTP 220354Z AUTO 04008KT 16/14 A2993 RMK AO1 SLP136 T01560144





000
SAUS41 KOKX 220352
MTRNYC
METAR KNYC 220351Z AUTO VRB06KT 10SM SCT018 BKN025 13/12 A2993 RMK
AO2 SLP125 T01330117 $





000
SAUS41 KOKX 220348
MTRNYC
SPECI KNYC 220347Z AUTO VRB03KT 10SM SCT016 BKN024 13/11 A2993 RMK
AO2 $





000
SAUS41 KOKX 220348
MTRNYC
SPECI KNYC 220347Z AUTO VRB03KT 10SM SCT016 BKN024 13/11 A2993 RMK
AO2 $





000
SAUS41 KOKX 220255
MTRMTP
METAR KMTP 220254Z AUTO 07005KT 17/14 A2993 RMK AO1 SLP136 T01670144
51011





000
SAUS41 KOKX 220255
MTRMTP
METAR KMTP 220254Z AUTO 07005KT 17/14 A2993 RMK AO1 SLP136 T01670144
51011





000
SAUS41 KOKX 220252
MTRNYC
METAR KNYC 220251Z AUTO VRB04KT 6SM BR CLR 13/12 A2993 RMK AO2
SLP126 60011 T01330117 51011 $





000
SAUS41 KOKX 220252
MTRNYC
METAR KNYC 220251Z AUTO VRB04KT 6SM BR CLR 13/12 A2993 RMK AO2
SLP126 60011 T01330117 51011 $





000
SAUS41 KOKX 220155
MTRMTP
METAR KMTP 220154Z AUTO 06005KT 17/14 A2993 RMK AO1 SLP134 T01670144





000
SAUS41 KOKX 220155
MTRMTP
METAR KMTP 220154Z AUTO 06005KT 17/14 A2993 RMK AO1 SLP134 T01670144





000
SAUS41 KOKX 220153
MTRNYC
METAR KNYC 220151Z AUTO VRB06KT 7SM BKN090 14/12 A2993 RMK AO2
RAB03E30 SLP124 P0011 T01390122 $





000
SAUS41 KOKX 220153
MTRNYC
METAR KNYC 220151Z AUTO VRB06KT 7SM BKN090 14/12 A2993 RMK AO2
RAB03E30 SLP124 P0011 T01390122 $





000
SAUS41 KOKX 220132
MTRNYC
SPECI KNYC 220130Z AUTO 06004KT 8SM FEW011 BKN060 OVC080 14/12 A2992
RMK AO2 RAB03E30 P0011 T01390122 $





000
SAUS41 KOKX 220120
MTRNYC
SPECI KNYC 220119Z AUTO VRB06KT 2SM +RA BR FEW007 SCT011 OVC019
14/12 A2993 RMK AO2 VIS 1V5 RAB03 P0009 T01390122 $





000
SAUS41 KOKX 220108
MTRNYC
SPECI KNYC 220107Z AUTO VRB03KT 4SM RA SCT008 BKN013 OVC036 14/12
A2993 RMK AO2 RAB03 P0001 T01440117 $





000
SAUS41 KOKX 220100
MTRNYC
SPECI KNYC 220059Z AUTO VRB03KT 10SM BKN008 BKN021 OVC036 14/12
A2993 RMK AO2 CIG 007V013 T01440117 $





000
SAUS41 KOKX 220055
MTRMTP
METAR KMTP 220054Z AUTO 03003KT 17/14 A2991 RMK AO1 SLP129 T01670144





000
SAUS41 KOKX 220052
MTRNYC
METAR KNYC 220051Z AUTO VRB04KT 10SM FEW008 BKN036 OVC080 15/12
A2993 RMK AO2 SLP125 T01500117 $





000
SAUS41 KOKX 212355
MTRMTP
METAR KMTP 212354Z AUTO 07004KT 17/14 A2990 RMK AO1 SLP125 T01670144
10200 20167 53006





000
SAUS41 KOKX 212353
MTRNYC
METAR KNYC 212351Z AUTO 06005KT 10SM FEW075 BKN100 17/10 A2990 RMK
AO2 SLP115 T01670100 10194 20161 53015 $





000
SAUS41 KOKX 212310
MTRNYC
SPECI KNYC 212309Z AUTO VRB06KT 10SM SCT020 BKN030 OVC100 17/12
A2988 RMK AO2 T01670117 $





000
SAUS41 KOKX 212310
MTRNYC
SPECI KNYC 212309Z AUTO VRB06KT 10SM SCT020 BKN030 OVC100 17/12
A2988 RMK AO2 T01670117 $





000
SAUS41 KOKX 212302
MTRNYC
SPECI KNYC 212301Z AUTO 08005KT 10SM BKN021 BKN030 OVC100 17/12
A2988 RMK AO2 T01670117 $





000
SAUS41 KOKX 212302
MTRNYC
SPECI KNYC 212301Z AUTO 08005KT 10SM BKN021 BKN030 OVC100 17/12
A2988 RMK AO2 T01670117 $





000
SAUS41 KOKX 212255
MTRMTP
METAR KMTP 212254Z AUTO 08004KT 17/14 A2989 RMK AO1 SLP122 T01670139





000
SAUS41 KOKX 212255
MTRMTP
METAR KMTP 212254Z AUTO 08004KT 17/14 A2989 RMK AO1 SLP122 T01670139





000
SAUS41 KOKX 212253
MTRNYC
METAR KNYC 212251Z AUTO VRB05KT 10SM SCT020 BKN042 17/11 A2988 RMK
AO2 SLP109 T01720111 $





000
SAUS41 KOKX 212253
MTRNYC
METAR KNYC 212251Z AUTO VRB05KT 10SM SCT020 BKN042 17/11 A2988 RMK
AO2 SLP109 T01720111 $





000
SAUS41 KOKX 212230
MTRNYC
SPECI KNYC 212228Z AUTO VRB04KT 10SM SCT022 SCT030 BKN050 17/11
A2987 RMK AO2 T01720111 $





000
SAUS41 KOKX 212208
MTRNYC
SPECI KNYC 212207Z AUTO VRB03KT 10SM BKN021 17/12 A2987 RMK AO2
T01720117 $





000
SAUS41 KOKX 212208
MTRNYC
SPECI KNYC 212207Z AUTO VRB03KT 10SM BKN021 17/12 A2987 RMK AO2
T01720117 $





000
SAUS41 KOKX 212155
MTRMTP
METAR KMTP 212154Z AUTO 05003KT 17/13 A2988 RMK AO1 SLP119 T01720133





000
SAUS41 KOKX 212155
MTRMTP
METAR KMTP 212154Z AUTO 05003KT 17/13 A2988 RMK AO1 SLP119 T01720133





000
SAUS41 KOKX 212152
MTRNYC
METAR KNYC 212151Z AUTO 11007KT 10SM FEW024 SCT060 17/11 A2986 RMK
AO2 SLP102 T01720111 $





000
SAUS41 KOKX 212152
MTRNYC
METAR KNYC 212151Z AUTO 11007KT 10SM FEW024 SCT060 17/11 A2986 RMK
AO2 SLP102 T01720111 $





000
SAUS41 KOKX 212128
MTRNYC
SPECI KNYC 212126Z AUTO VRB04KT 10SM FEW026 BKN048 OVC065 18/11
A2986 RMK AO2 T01780111 $





000
SAUS41 KOKX 212100
MTRNYC
SPECI KNYC 212059Z AUTO 00000KT 10SM BKN027 18/11 A2985 RMK AO2
T01830111 $





000
SAUS41 KOKX 212055
MTRMTP
METAR KMTP 212054Z AUTO 06004KT 18/13 A2988 RMK AO1 SLP119 T01830133
55003





000
SAUS41 KOKX 212053
MTRNYC
METAR KNYC 212051Z AUTO VRB04KT 10SM SCT027 18/11 A2985 RMK AO2
SLP099 T01780106 56002 $





000
SAUS41 KOKX 212048
MTRNYC
SPECI KNYC 212047Z AUTO 16006KT 10SM SCT025 18/11 A2985 RMK AO2 $





000
SAUS41 KOKX 212028
MTRNYC
SPECI KNYC 212027Z AUTO 10005KT 10SM BKN022 BKN029 BKN055 18/12
A2985 RMK AO2 T01780117 $





000
SAUS41 KOKX 211955
MTRMTP
METAR KMTP 211954Z AUTO 00000KT 19/11 A2988 RMK AO1 SLP116 T01940106





000
SAUS41 KOKX 211953
MTRNYC
METAR KNYC 211951Z AUTO VRB04KT 10SM SCT025 BKN030 18/11 A2985 RMK
AO2 SLP099 T01830111 $





000
SAUS41 KOKX 211855
MTRMTP
METAR KMTP 211854Z AUTO 00000KT 19/11 A2988 RMK AO1 SLP117 T01940106





000
SAUS41 KOKX 211852
MTRNYC
METAR KNYC 211851Z AUTO 13007KT 080V180 10SM SCT028 SCT100 BKN110
19/11 A2986 RMK AO2 SLP101 T01890106 $





000
SAUS41 KOKX 211755
MTRMTP
METAR KMTP 211754Z AUTO VRB03KT 19/13 A2989 RMK AO1 SLP122 T01940128
10200 20133 58012





000
SAUS41 KOKX 211752
MTRNYC
METAR KNYC 211751Z AUTO VRB03KT 10SM SCT045 BKN070 OVC090 18/09
A2986 RMK AO2 SLP103 T01830094 10189 20133 58016 $





000
SAUS41 KOKX 211656
MTRMTP
METAR KMTP 211654Z AUTO VRB03KT 19/14 A2991 RMK AO1 SLP128 T01940139





000
SAUS41 KOKX 211656
MTRMTP
METAR KMTP 211654Z AUTO VRB03KT 19/14 A2991 RMK AO1 SLP128 T01940139





000
SAUS41 KOKX 211653
MTRNYC
METAR KNYC 211651Z AUTO 00000KT 10SM FEW038 SCT055 BKN070 18/09
A2988 RMK AO2 SLP109 T01780094 $





000
SAUS41 KOKX 211653
MTRNYC
METAR KNYC 211651Z AUTO 00000KT 10SM FEW038 SCT055 BKN070 18/09
A2988 RMK AO2 SLP109 T01780094 $





000
SAUS41 KOKX 211555
MTRMTP
METAR KMTP 211554Z AUTO 17004KT 18/13 A2992 RMK AO1 SLP133 T01830133





000
SAUS41 KOKX 211555
MTRMTP
METAR KMTP 211554Z AUTO 17004KT 18/13 A2992 RMK AO1 SLP133 T01830133





000
SAUS41 KOKX 211552
MTRNYC
METAR KNYC 211551Z AUTO VRB03KT 10SM BKN038 OVC047 18/10 A2990 RMK
AO2 SLP116 T01780100 $





000
SAUS41 KOKX 211552
MTRNYC
METAR KNYC 211551Z AUTO VRB03KT 10SM BKN038 OVC047 18/10 A2990 RMK
AO2 SLP116 T01780100 $





000
SAUS41 KOKX 211455
MTRMTP
METAR KMTP 211454Z AUTO 00000KT 18/11 A2993 RMK AO1 SLP134 T01830111
58006





000
SAUS41 KOKX 211453
MTRNYC
METAR KNYC 211451Z AUTO 00000KT 10SM FEW034 FEW065 18/07 A2991 RMK
AO2 SLP119 T01780072 58003 $





000
SAUS41 KOKX 211355
MTRMTP
METAR KMTP 211354Z AUTO 00000KT 17/12 A2994 RMK AO1 SLP138 T01720117





000
SAUS41 KOKX 211352
MTRNYC
METAR KNYC 211351Z AUTO 00000KT 10SM SCT055 SCT070 16/07 A2992 RMK
AO2 SLP122 T01610072 $





000
SAUS41 KOKX 211255
MTRMTP
METAR KMTP 211254Z AUTO 00000KT 17/13 A2994 RMK AO1 SLP138 T01720133





000
SAUS41 KOKX 211252
MTRNYC
METAR KNYC 211251Z AUTO 11004KT 10SM FEW100 14/08 A2992 RMK AO2
SLP123 T01440078 $





000
SAUS41 KOKX 211155
MTRMTP
METAR KMTP 211154Z AUTO 00000KT 13/11 A2995 RMK AO1 SLP140 T01280111
10167 20111 55000





000
SAUS41 KOKX 211155
MTRMTP
METAR KMTP 211154Z AUTO 00000KT 13/11 A2995 RMK AO1 SLP140 T01280111
10167 20111 55000





000
SAUS41 KOKX 211152
MTRNYC
METAR KNYC 211151Z AUTO 00000KT 10SM CLR 13/07 A2992 RMK AO2 SLP122
T01330072 10150 20128 56002 $





000
SAUS41 KOKX 211152
MTRNYC
METAR KNYC 211151Z AUTO 00000KT 10SM CLR 13/07 A2992 RMK AO2 SLP122
T01330072 10150 20128 56002 $





000
SAUS41 KOKX 211055
MTRMTP
METAR KMTP 211054Z AUTO 00000KT 12/11 A2994 RMK AO1 SLP137 T01170106





000
SAUS41 KOKX 211055
MTRMTP
METAR KMTP 211054Z AUTO 00000KT 12/11 A2994 RMK AO1 SLP137 T01170106





000
SAUS41 KOKX 211052
MTRNYC
METAR KNYC 211051Z AUTO 00000KT 10SM FEW090 13/07 A2992 RMK AO2
SLP122 T01280072 $





000
SAUS41 KOKX 211052
MTRNYC
METAR KNYC 211051Z AUTO 00000KT 10SM FEW090 13/07 A2992 RMK AO2
SLP122 T01280072 $





000
SAUS41 KOKX 210955
MTRMTP
METAR KMTP 210954Z AUTO 00000KT 13/11 A2994 RMK AO1 SLP137 T01280111





000
SAUS41 KOKX 210955
MTRMTP
METAR KMTP 210954Z AUTO 00000KT 13/11 A2994 RMK AO1 SLP137 T01280111





000
SAUS41 KOKX 210953
MTRNYC
METAR KNYC 210951Z AUTO 00000KT 10SM FEW120 13/07 A2992 RMK AO2
SLP123 T01330072 $





000
SAUS41 KOKX 210855
MTRMTP
METAR KMTP 210854Z AUTO 00000KT 13/11 A2995 RMK AO1 SLP141 T01330111
56015





000
SAUS41 KOKX 210853
MTRNYC
METAR KNYC 210851Z AUTO 00000KT 10SM BKN080 BKN120 14/06 A2992 RMK
AO2 SLP124 T01390061 56012 $





000
SAUS41 KOKX 210755
MTRMTP
METAR KMTP 210754Z AUTO 00000KT 15/11 A2997 RMK AO1 SLP147 T01500111





000
SAUS41 KOKX 210752
MTRNYC
METAR KNYC 210751Z AUTO 00000KT 10SM FEW120 14/06 A2993 RMK AO2
SLP126 T01440061 $





000
SAUS41 KOKX 210655
MTRMTP
METAR KMTP 210654Z AUTO 20006KT 17/11 A2997 RMK AO1 SLP147 T01670106





000
SAUS41 KOKX 210653
MTRNYC
METAR KNYC 210651Z AUTO 24005KT 10SM CLR 14/06 A2995 RMK AO2 SLP132
T01440061 $





000
SAUS41 KOKX 210555
MTRMTP
METAR KMTP 210554Z AUTO 20007G15KT 16/10 A2999 RMK AO1 SLP156
T01610100 10161 20139 58008





000
SAUS41 KOKX 210553
MTRNYC
METAR KNYC 210551Z AUTO 10SM CLR 14/06 A2996 RMK AO2 SLP136
T01440061 10150 20133 58012 $





000
SAUS41 KOKX 210455
MTRMTP
METAR KMTP 210454Z AUTO 20007G19KT 16/10 A3001 RMK AO1 SLP160
T01610100 401610067





000
SAUS41 KOKX 210455
MTRMTP
METAR KMTP 210454Z AUTO 20007G19KT 16/10 A3001 RMK AO1 SLP160
T01610100 401610067





000
SAUS41 KOKX 210453
MTRNYC
METAR KNYC 210451Z AUTO 23005KT 10SM CLR 15/05 A2998 RMK AO2 SLP144
T01500050 401560056 $





000
SAUS41 KOKX 210453
MTRNYC
METAR KNYC 210451Z AUTO 23005KT 10SM CLR 15/05 A2998 RMK AO2 SLP144
T01500050 401560056 $





000
SAUS41 KOKX 210355
MTRMTP
METAR KMTP 210354Z AUTO 21008KT 16/10 A3001 RMK AO1 SLP162 T01610100





000
SAUS41 KOKX 210355
MTRMTP
METAR KMTP 210354Z AUTO 21008KT 16/10 A3001 RMK AO1 SLP162 T01610100





000
SAUS41 KOKX 210352
MTRNYC
METAR KNYC 210351Z AUTO VRB03G15KT 10SM CLR 14/06 A2999 RMK AO2
SLP146 T01440061 $





000
SAUS41 KOKX 210352
MTRNYC
METAR KNYC 210351Z AUTO VRB03G15KT 10SM CLR 14/06 A2999 RMK AO2
SLP146 T01440061 $





000
SAUS41 KOKX 210255
MTRMTP
METAR KMTP 210254Z AUTO 21006KT 16/10 A3002 RMK AO1 SLP164 T01610100
58002





000
SAUS41 KOKX 210252
MTRNYC
METAR KNYC 210251Z AUTO 00000KT 10SM CLR 14/07 A3000 RMK AO2 SLP148
T01440067 58003 $





000
SAUS41 KOKX 210252
MTRNYC
METAR KNYC 210251Z AUTO 00000KT 10SM CLR 14/07 A3000 RMK AO2 SLP148
T01440067 58003 $





000
SAUS41 KOKX 210155
MTRMTP
METAR KMTP 210154Z AUTO 21007KT 16/09 A3002 RMK AO1 SLP166 T01560089





000
SAUS41 KOKX 210155
MTRMTP
METAR KMTP 210154Z AUTO 21007KT 16/09 A3002 RMK AO1 SLP166 T01560089





000
SAUS41 KOKX 210153
MTRNYC
METAR KNYC 210151Z AUTO 10SM CLR 14/05 A3000 RMK AO2 SLP151
T01440050 $





000
SAUS41 KOKX 210153
MTRNYC
METAR KNYC 210151Z AUTO 10SM CLR 14/05 A3000 RMK AO2 SLP151
T01440050 $





000
SAUS41 KOKX 210055
MTRMTP
METAR KMTP 210054Z AUTO VRB06KT 14/07 A3002 RMK AO1 SLP166 T01440072





000
SAUS41 KOKX 210052
MTRNYC
METAR KNYC 210051Z AUTO VRB03KT 10SM CLR 13/04 A3000 RMK AO2 SLP151
T01330044 $





000
SAUS41 KOKX 202355
MTRMTP
METAR KMTP 202354Z AUTO 23006KT 14/07 A3002 RMK AO1 SLP166 T01390072
10139 20122 53001





000
SAUS41 KOKX 202352
MTRNYC
METAR KNYC 202351Z AUTO 24003KT 10SM CLR 14/03 A3001 RMK AO2 SLP153
T01390028 10156 20133 53002 $





000
SAUS41 KOKX 202255
MTRMTP
METAR KMTP 202254Z AUTO 23007KT 13/07 A3002 RMK AO1 SLP167 T01330067





000
SAUS41 KOKX 202252
MTRNYC
METAR KNYC 202251Z AUTO 10SM CLR 14/03 A3000 RMK AO2 SLP150
T01390028 $





000
SAUS41 KOKX 202252
MTRNYC
METAR KNYC 202251Z AUTO 10SM CLR 14/03 A3000 RMK AO2 SLP150
T01390028 $





000
SAUS41 KOKX 202155
MTRMTP
METAR KMTP 202154Z AUTO VRB06KT 13/06 A3002 RMK AO1 SLP164 T01330061





000
SAUS41 KOKX 202155
MTRMTP
METAR KMTP 202154Z AUTO VRB06KT 13/06 A3002 RMK AO1 SLP164 T01330061





000
SAUS41 KOKX 202152
MTRNYC
METAR KNYC 202151Z AUTO VRB04KT 10SM CLR 14/03 A3000 RMK AO2 SLP151
T01440028 $





000
SAUS41 KOKX 202152
MTRNYC
METAR KNYC 202151Z AUTO VRB04KT 10SM CLR 14/03 A3000 RMK AO2 SLP151
T01440028 $





000
SAUS41 KOKX 202055
MTRMTP
METAR KMTP 202054Z AUTO 22008G15KT 13/06 A3002 RMK AO1 SLP165
T01330056 58016





000
SAUS41 KOKX 202052
MTRNYC
METAR KNYC 202051Z AUTO VRB03KT 10SM CLR 15/03 A3000 RMK AO2 SLP151
T01500033 56020 $





000
SAUS41 KOKX 201955
MTRMTP
METAR KMTP 201954Z AUTO 23008G15KT 14/05 A3004 RMK AO1 SLP171
T01390050





000
SAUS41 KOKX 201953
MTRNYC
METAR KNYC 201951Z AUTO 16006KT 10SM CLR 15/02 A3001 RMK AO2 SLP156
T01500022 $





000
SAUS41 KOKX 201855
MTRMTP
METAR KMTP 201854Z AUTO 25008KT 13/03 A3006 RMK AO1 SLP177 T01330033





000
SAUS41 KOKX 201852
MTRNYC
METAR KNYC 201851Z AUTO VRB04KT 10SM CLR 15/02 A3003 RMK AO2 SLP162
T01500022 $





000
SAUS41 KOKX 201755
MTRMTP
METAR KMTP 201754Z AUTO 24008KT 12/02 A3007 RMK AO1 SLP181 T01220017
10122 20083 56021





000
SAUS41 KOKX 201753
MTRNYC
METAR KNYC 201751Z AUTO 27006KT 10SM CLR 14/01 A3006 RMK AO2 SLP171
T01390011 10144 20067 56027 $





000
SAUS41 KOKX 201655
MTRMTP
METAR KMTP 201654Z AUTO 22006KT 12/02 A3007 RMK AO1 SLP183 T01220022





000
SAUS41 KOKX 201652
MTRNYC
METAR KNYC 201651Z AUTO VRB04KT 10SM CLR 13/01 A3009 RMK AO2 SLP179
T01330006 $





000
SAUS41 KOKX 201555
MTRMTP
METAR KMTP 201554Z AUTO VRB06KT 12/02 A3011 RMK AO1 SLP194 T01170017





000
SAUS41 KOKX 201553
MTRNYC
METAR KNYC 201551Z AUTO VRB04KT 10SM FEW120 11/00 A3011 RMK AO2
SLP189 T01110000 $





000
SAUS41 KOKX 201455
MTRMTP
METAR KMTP 201454Z AUTO 24008KT 11/02 A3013 RMK AO1 SLP202 T01060017
51009





000
SAUS41 KOKX 201453
MTRNYC
METAR KNYC 201451Z AUTO 10SM CLR 11/M01 A3014 RMK AO2 SLP198
T01061006 50004 $





000
SAUS41 KOKX 201355
MTRMTP
METAR KMTP 201354Z AUTO 25008G14KT 10/02 A3013 RMK AO1 SLP202
T01000022





000
SAUS41 KOKX 201353
MTRNYC
METAR KNYC 201351Z AUTO 00000KT 6SM HZ CLR 09/M01 A3014 RMK AO2
SLP199 T00891006 $





000
SAUS41 KOKX 201256
MTRMTP
METAR KMTP 201254Z AUTO 27006KT 09/02 A3012 RMK AO1 SLP199 T00940017





000
SAUS41 KOKX 201252
MTRNYC
METAR KNYC 201251Z AUTO VRB05KT 10SM CLR 08/M02 A3015 RMK AO2 SLP201
T00831017 $





000
SAUS41 KOKX 201155
MTRMTP
METAR KMTP 201154Z AUTO 25005KT 08/01 A3010 RMK AO1 SLP193 T00830011
10083 20067 51011





000
SAUS41 KOKX 201152
MTRNYC
METAR KNYC 201151Z AUTO 27005KT 10SM CLR 07/M02 A3013 RMK AO2 SLP194
T00671017 10067 20056 53006 $





000
SAUS41 KOKX 201055
MTRMTP
METAR KMTP 201054Z AUTO 27004KT 07/00 A3009 RMK AO1 SLP190 T00720000





000
SAUS41 KOKX 201052
MTRNYC
METAR KNYC 201051Z AUTO 25003KT 10SM CLR 06/M02 A3012 RMK AO2 SLP190
T00611017 $





000
SAUS41 KOKX 200955
MTRMTP
METAR KMTP 200954Z AUTO 30007KT 07/M01 A3009 RMK AO1 SLP188
T00671011





000
SAUS41 KOKX 200955
MTRMTP
METAR KMTP 200954Z AUTO 30007KT 07/M01 A3009 RMK AO1 SLP188
T00671011





000
SAUS41 KOKX 200953
MTRNYC
METAR KNYC 200951Z AUTO 00000KT 10SM CLR 06/M02 A3012 RMK AO2 SLP191
T00561017 $





000
SAUS41 KOKX 200953
MTRNYC
METAR KNYC 200951Z AUTO 00000KT 10SM CLR 06/M02 A3012 RMK AO2 SLP191
T00561017 $





000
SAUS41 KOKX 200855
MTRMTP
METAR KMTP 200854Z AUTO 31006KT 07/M02 A3007 RMK AO1 SLP182
T00671022 51009





000
SAUS41 KOKX 200852
MTRNYC
METAR KNYC 200851Z AUTO VRB04KT 10SM CLR 06/M02 A3011 RMK AO2 SLP189
T00611017 51007 $





000
SAUS41 KOKX 200755
MTRMTP
METAR KMTP 200754Z AUTO 34008KT 07/M03 A3006 RMK AO1 SLP180
T00671028





000
SAUS41 KOKX 200755
MTRMTP
METAR KMTP 200754Z AUTO 34008KT 07/M03 A3006 RMK AO1 SLP180
T00671028





000
SAUS41 KOKX 200753
MTRNYC
METAR KNYC 200751Z AUTO VRB03KT 10SM CLR 06/M02 A3010 RMK AO2 SLP185
T00611022 $





000
SAUS41 KOKX 200753
MTRNYC
METAR KNYC 200751Z AUTO VRB03KT 10SM CLR 06/M02 A3010 RMK AO2 SLP185
T00611022 $





000
SAUS41 KOKX 200655
MTRMTP
METAR KMTP 200654Z AUTO 32008KT 07/M02 A3005 RMK AO1 SLP176
T00671022





000
SAUS41 KOKX 200652
MTRNYC
METAR KNYC 200651Z AUTO VRB03KT 10SM CLR 06/M02 A3010 RMK AO2 SLP186
T00561022 $





000
SAUS41 KOKX 200555
MTRMTP
METAR KMTP 200554Z AUTO 32011KT 07/M02 A3004 RMK AO1 SLP173
T00721022 10094 20072 53011





000
SAUS41 KOKX 200553
MTRNYC
METAR KNYC 200551Z AUTO 31004KT 10SM CLR 06/M03 A3009 RMK AO2 SLP181
T00611028 10083 20061 53001 $





000
SAUS41 KOKX 200455
MTRMTP
METAR KMTP 200454Z AUTO 32015G21KT 08/M02 A3003 RMK AO1 SLP170
T00781017 401560078





000
SAUS41 KOKX 200452
MTRNYC
METAR KNYC 200451Z AUTO 31007KT 10SM CLR 07/M03 A3009 RMK AO2 SLP181
T00671033 401330067 $





000
SAUS41 KOKX 200355
MTRMTP
METAR KMTP 200354Z AUTO 31013G22KT 08/M01 A3002 RMK AO1 SLP165
T00781011





000
SAUS41 KOKX 200352
MTRNYC
METAR KNYC 200351Z AUTO VRB05KT 10SM CLR 07/M03 A3009 RMK AO2 SLP180
T00671033 $





000
SAUS41 KOKX 200255
MTRMTP
METAR KMTP 200254Z AUTO 32014G23KT 08/M01 A3001 RMK AO1 PK WND
32028/0241 SLP162 T00781011 51016





000
SAUS41 KOKX 200252
MTRNYC
METAR KNYC 200251Z AUTO VRB04KT 10SM CLR 07/M03 A3009 RMK AO2 SLP181
T00721033 51011 $





000
SAUS41 KOKX 200155
MTRMTP
METAR KMTP 200154Z AUTO 32016G24KT 08/M01 A3000 RMK AO1 PK WND
31026/0144 SLP159 T00831006





000
SAUS41 KOKX 200152
MTRNYC
METAR KNYC 200151Z AUTO VRB05KT 10SM CLR 08/M03 A3008 RMK AO2 SLP179
T00781033 $





000
SAUS41 KOKX 200056 COR
MTRNYC
METAR KNYC 200051Z AUTO VRB06KT 10SM CLR 08/M03 A3008 RMK AO2 SLP178
T00781028 $





000
SAUS41 KOKX 200055
MTRMTP
METAR KMTP 200054Z AUTO 31014G24KT 09/00 A2999 RMK AO1 SLP155
T00890000





000
SAUS41 KOKX 192355
MTRMTP
METAR KMTP 192354Z AUTO 30013G21KT 09/M01 A2997 RMK AO1 SLP146
T00941006 10139 20094 51029





000
SAUS41 KOKX 192355
MTRMTP
METAR KMTP 192354Z AUTO 30013G21KT 09/M01 A2997 RMK AO1 SLP146
T00941006 10139 20094 51029





000
SAUS41 KOKX 192352
MTRNYC
METAR KNYC 192351Z AUTO 00000KT 10SM CLR 08/M03 A3006 RMK AO2 SLP170
T00831033 10122 20083 51024 $





000
SAUS41 KOKX 192352
MTRNYC
METAR KNYC 192351Z AUTO 00000KT 10SM CLR 08/M03 A3006 RMK AO2 SLP170
T00831033 10122 20083 51024 $





000
SAUS41 KOKX 192255
MTRMTP
METAR KMTP 192254Z AUTO 30014G20KT 11/00 A2994 RMK AO1 SLP138
T01060000





000
SAUS41 KOKX 192255
MTRMTP
METAR KMTP 192254Z AUTO 30014G20KT 11/00 A2994 RMK AO1 SLP138
T01060000





000
SAUS41 KOKX 192252
MTRNYC
METAR KNYC 192251Z AUTO 10SM CLR 09/M03 A3004 RMK AO2 SLP163
T00941033 $





000
SAUS41 KOKX 192252
MTRNYC
METAR KNYC 192251Z AUTO 10SM CLR 09/M03 A3004 RMK AO2 SLP163
T00941033 $





000
SAUS41 KOKX 192155
MTRMTP
METAR KMTP 192154Z AUTO 32016G26KT 11/00 A2991 RMK AO1 PK WND
32026/2153 SLP128 T01110000





000
SAUS41 KOKX 192153
MTRNYC
METAR KNYC 192151Z AUTO 30008KT 270V010 10SM CLR 10/M04 A3001 RMK
AO2 SLP153 T01001039 $





000
SAUS41 KOKX 192055
MTRMTP
METAR KMTP 192054Z AUTO 32012G20KT 12/M01 A2988 RMK AO1 SLP117
T01171006 53021





000
SAUS41 KOKX 192053
MTRNYC
METAR KNYC 192051Z AUTO 30010G19KT 10SM CLR 11/M04 A2998 RMK AO2
SLP145 T01061044 53021 $





000
SAUS41 KOKX 191955
MTRMTP
METAR KMTP 191954Z AUTO 33012KT 13/01 A2985 RMK AO1 SLP109 T01280006





000
SAUS41 KOKX 191952
MTRNYC
METAR KNYC 191951Z AUTO VRB05G20KT 10SM CLR 11/M04 A2996 RMK AO2
SLP136 T01061039 $





000
SAUS41 KOKX 191855
MTRMTP
METAR KMTP 191854Z AUTO 30011G18KT 13/02 A2984 RMK AO1 SLP104
T01330017





000
SAUS41 KOKX 191853
MTRNYC
METAR KNYC 191851Z AUTO 31010G19KT 280V020 10SM CLR 11/M03 A2994 RMK
AO2 SLP130 T01111033 $





000
SAUS41 KOKX 191755
MTRMTP
METAR KMTP 191754Z AUTO 31013G21KT 13/02 A2982 RMK AO1 SLP096
T01330022 10139 20117 55006





000
SAUS41 KOKX 191753
MTRNYC
METAR KNYC 191751Z AUTO 32011G20KT 10SM CLR 12/M02 A2992 RMK AO2
SLP124 T01171022 10122 20106 51002 $





000
SAUS41 KOKX 191655
MTRMTP
METAR KMTP 191654Z AUTO 32010G19KT 13/03 A2981 RMK AO1 SLP094
T01330033





000
SAUS41 KOKX 191652
MTRNYC
METAR KNYC 191651Z AUTO 30009G20KT 10SM BKN046 12/M01 A2992 RMK AO2
SLP123 T01171006 $





000
SAUS41 KOKX 191555
MTRMTP
METAR KMTP 191554Z AUTO 33013G21KT 12/04 A2981 RMK AO1 SLP094
T01220039





000
SAUS41 KOKX 191552
MTRNYC
METAR KNYC 191551Z AUTO VRB03G24KT 10SM FEW042 12/00 A2992 RMK AO2
SLP124 T01170000 $





    US Dept of Commerce
    National Oceanic and Atmospheric Administration
    National Weather Service
    1325 East West Highway
    Silver Spring, MD 20910
    Page Author: NWS Internet Services Team
Disclaimer
Information Quality
Credits
Glossary
Privacy Policy
Freedom of Information Act (FOIA)
About Us
Career Opportunities